sensor_id;sensor_type;location;lat;lon;timestamp;pressure;altitude;pressure_sealevel;temperature;humidity
58245;BME280;44550;43.864;25.986;2023-01-23T00:01:47;102200.75;;;7.66;100.00
58245;BME280;44550;43.864;25.986;2023-01-23T00:05:54;102208.28;;;7.60;100.00
58245;BME280;44550;43.864;25.986;2023-01-23T00:09:55;102203.34;;;7.66;100.00
58245;BME280;44550;43.864;25.986;2023-01-23T00:13:55;102212.75;;;7.63;100.00
58245;BME280;44550;43.864;25.986;2023-01-23T00:17:54;102216.28;;;7.65;100.00
58245;BME280;44550;43.864;25.986;2023-01-23T00:21:54;102219.66;;;7.62;100.00
58245;BME280;44550;43.864;25.986;2023-01-23T00:25:55;102229.94;;;7.59;100.00
58245;BME280;44550;43.864;25.986;2023-01-23T00:29:54;102233.69;;;7.66;100.00
58245;BME280;44550;43.864;25.986;2023-01-23T00:33:54;102233.63;;;7.64;100.00
58245;BME280;44550;43.864;25.986;2023-01-23T00:37:54;102246.16;;;7.73;100.00
58245;BME280;44550;43.864;25.986;2023-01-23T00:41:55;102242.66;;;7.72;100.00
58245;BME280;44550;43.864;25.986;2023-01-23T00:45:54;102249.38;;;7.67;100.00
58245;BME280;44550;43.864;25.986;2023-01-23T00:49:54;102246.06;;;7.71;100.00
58245;BME280;44550;43.864;25.986;2023-01-23T00:53:54;102247.16;;;7.76;100.00
58245;BME280;44550;43.864;25.986;2023-01-23T00:57:55;102256.44;;;7.70;100.00
58245;BME280;44550;43.864;25.986;2023-01-23T01:01:55;102247.47;;;7.63;100.00
58245;BME280;44550;43.864;25.986;2023-01-23T01:05:54;102256.91;;;7.61;100.00
58245;BME280;44550;43.864;25.986;2023-01-23T01:09:56;102258.22;;;7.51;100.00
58245;BME280;44550;43.864;25.986;2023-01-23T01:13:57;102261.78;;;7.53;100.00
58245;BME280;44550;43.864;25.986;2023-01-23T01:17:57;102259.00;;;7.49;100.00
58245;BME280;44550;43.864;25.986;2023-01-23T01:21:57;102256.41;;;7.49;100.00
58245;BME280;44550;43.864;25.986;2023-01-23T01:25:57;102260.22;;;7.38;100.00
58245;BME280;44550;43.864;25.986;2023-01-23T01:29:58;102260.50;;;7.44;100.00
58245;BME280;44550;43.864;25.986;2023-01-23T01:33:58;102267.38;;;7.42;100.00
58245;BME280;44550;43.864;25.986;2023-01-23T01:37:57;102263.06;;;7.42;100.00
58245;BME280;44550;43.864;25.986;2023-01-23T01:41:56;102262.97;;;7.21;100.00
58245;BME280;44550;43.864;25.986;2023-01-23T01:46:06;102258.03;;;7.27;100.00
58245;BME280;44550;43.864;25.986;2023-01-23T01:50:05;102265.31;;;7.15;100.00
58245;BME280;44550;43.864;25.986;2023-01-23T01:54:10;102264.19;;;7.10;100.00
58245;BME280;44550;43.864;25.986;2023-01-23T01:58:11;102270.88;;;7.05;100.00
58245;BME280;44550;43.864;25.986;2023-01-23T02:02:15;102269.72;;;6.98;100.00
58245;BME280;44550;43.864;25.986;2023-01-23T02:06:14;102256.06;;;7.02;100.00
58245;BME280;44550;43.864;25.986;2023-01-23T02:10:13;102260.56;;;7.06;100.00
58245;BME280;44550;43.864;25.986;2023-01-23T02:14:14;102258.03;;;7.08;100.00
58245;BME280;44550;43.864;25.986;2023-01-23T02:18:16;102266.94;;;7.13;100.00
58245;BME280;44550;43.864;25.986;2023-01-23T02:22:18;102274.81;;;7.15;100.00
58245;BME280;44550;43.864;25.986;2023-01-23T02:26:23;102273.50;;;7.24;100.00
58245;BME280;44550;43.864;25.986;2023-01-23T02:30:23;102296.59;;;7.17;100.00
58245;BME280;44550;43.864;25.986;2023-01-23T02:34:22;102291.94;;;7.10;100.00
58245;BME280;44550;43.864;25.986;2023-01-23T02:38:27;102292.66;;;7.07;100.00
58245;BME280;44550;43.864;25.986;2023-01-23T02:42:29;102283.09;;;7.06;100.00
58245;BME280;44550;43.864;25.986;2023-01-23T02:46:30;102295.97;;;7.03;100.00
58245;BME280;44550;43.864;25.986;2023-01-23T02:50:28;102293.56;;;7.07;100.00
58245;BME280;44550;43.864;25.986;2023-01-23T02:54:28;102304.31;;;6.96;100.00
58245;BME280;44550;43.864;25.986;2023-01-23T02:58:29;102294.84;;;6.98;100.00
58245;BME280;44550;43.864;25.986;2023-01-23T03:02:45;102295.97;;;6.85;100.00
58245;BME280;44550;43.864;25.986;2023-01-23T03:06:44;102295.09;;;6.85;100.00
58245;BME280;44550;43.864;25.986;2023-01-23T03:10:44;102294.94;;;6.81;100.00
58245;BME280;44550;43.864;25.986;2023-01-23T03:14:45;102303.81;;;6.67;100.00
58245;BME280;44550;43.864;25.986;2023-01-23T03:18:49;102309.81;;;6.48;100.00
58245;BME280;44550;43.864;25.986;2023-01-23T03:22:51;102310.50;;;6.26;100.00
58245;BME280;44550;43.864;25.986;2023-01-23T03:26:50;102306.25;;;6.28;100.00
58245;BME280;44550;43.864;25.986;2023-01-23T03:30:52;102308.69;;;6.07;100.00
58245;BME280;44550;43.864;25.986;2023-01-23T03:34:51;102321.50;;;6.04;100.00
58245;BME280;44550;43.864;25.986;2023-01-23T03:38:51;102323.72;;;5.97;100.00
58245;BME280;44550;43.864;25.986;2023-01-23T03:43:06;102331.72;;;6.01;100.00
58245;BME280;44550;43.864;25.986;2023-01-23T03:47:11;102333.75;;;5.91;100.00
58245;BME280;44550;43.864;25.986;2023-01-23T03:51:09;102328.56;;;5.91;100.00
58245;BME280;44550;43.864;25.986;2023-01-23T03:55:09;102337.34;;;5.76;100.00
58245;BME280;44550;43.864;25.986;2023-01-23T03:59:08;102332.16;;;5.76;100.00
58245;BME280;44550;43.864;25.986;2023-01-23T04:03:10;102333.84;;;5.76;100.00
58245;BME280;44550;43.864;25.986;2023-01-23T04:07:10;102348.78;;;5.63;100.00
58245;BME280;44550;43.864;25.986;2023-01-23T04:11:10;102347.97;;;5.64;100.00
58245;BME280;44550;43.864;25.986;2023-01-23T04:15:10;102346.41;;;5.68;100.00
58245;BME280;44550;43.864;25.986;2023-01-23T04:19:11;102353.66;;;5.57;100.00
58245;BME280;44550;43.864;25.986;2023-01-23T04:23:10;102350.72;;;5.51;100.00
58245;BME280;44550;43.864;25.986;2023-01-23T04:27:10;102357.22;;;5.43;100.00
58245;BME280;44550;43.864;25.986;2023-01-23T04:31:09;102348.94;;;5.34;100.00
58245;BME280;44550;43.864;25.986;2023-01-23T04:35:11;102370.88;;;5.24;100.00
58245;BME280;44550;43.864;25.986;2023-01-23T04:39:10;102375.09;;;5.22;100.00
58245;BME280;44550;43.864;25.986;2023-01-23T04:43:11;102370.31;;;5.13;100.00
58245;BME280;44550;43.864;25.986;2023-01-23T04:47:11;102365.59;;;5.23;100.00
58245;BME280;44550;43.864;25.986;2023-01-23T04:51:13;102376.56;;;5.17;100.00
58245;BME280;44550;43.864;25.986;2023-01-23T04:55:13;102382.19;;;5.10;100.00
58245;BME280;44550;43.864;25.986;2023-01-23T04:59:13;102389.97;;;5.10;100.00
58245;BME280;44550;43.864;25.986;2023-01-23T05:03:12;102389.66;;;5.04;100.00
58245;BME280;44550;43.864;25.986;2023-01-23T05:07:14;102389.72;;;5.05;100.00
58245;BME280;44550;43.864;25.986;2023-01-23T05:11:14;102397.31;;;5.02;100.00
58245;BME280;44550;43.864;25.986;2023-01-23T05:15:13;102416.81;;;4.95;100.00
58245;BME280;44550;43.864;25.986;2023-01-23T05:19:12;102415.88;;;4.93;100.00
58245;BME280;44550;43.864;25.986;2023-01-23T05:23:14;102412.63;;;4.83;100.00
58245;BME280;44550;43.864;25.986;2023-01-23T05:27:14;102414.44;;;4.84;100.00
58245;BME280;44550;43.864;25.986;2023-01-23T05:31:15;102411.75;;;4.82;100.00
58245;BME280;44550;43.864;25.986;2023-01-23T05:35:17;102404.25;;;4.87;100.00
58245;BME280;44550;43.864;25.986;2023-01-23T05:39:19;102417.22;;;4.87;100.00
58245;BME280;44550;43.864;25.986;2023-01-23T05:43:19;102412.91;;;4.87;100.00
58245;BME280;44550;43.864;25.986;2023-01-23T05:47:19;102425.09;;;4.74;100.00
58245;BME280;44550;43.864;25.986;2023-01-23T05:51:19;102435.53;;;4.75;100.00
58245;BME280;44550;43.864;25.986;2023-01-23T05:55:21;102439.91;;;4.76;100.00
58245;BME280;44550;43.864;25.986;2023-01-23T05:59:26;102448.13;;;4.69;100.00
58245;BME280;44550;43.864;25.986;2023-01-23T06:03:26;102453.25;;;4.67;100.00
58245;BME280;44550;43.864;25.986;2023-01-23T06:07:26;102465.63;;;4.73;100.00
58245;BME280;44550;43.864;25.986;2023-01-23T06:11:27;102466.69;;;4.77;100.00
58245;BME280;44550;43.864;25.986;2023-01-23T06:15:27;102477.81;;;4.74;100.00
58245;BME280;44550;43.864;25.986;2023-01-23T06:19:26;102475.28;;;4.76;100.00
58245;BME280;44550;43.864;25.986;2023-01-23T06:23:26;102483.88;;;4.75;100.00
58245;BME280;44550;43.864;25.986;2023-01-23T06:27:29;102490.91;;;4.62;100.00
58245;BME280;44550;43.864;25.986;2023-01-23T06:31:30;102475.66;;;4.52;100.00
58245;BME280;44550;43.864;25.986;2023-01-23T06:35:30;102512.84;;;4.67;100.00
58245;BME280;44550;43.864;25.986;2023-01-23T06:39:29;102517.84;;;4.64;100.00
58245;BME280;44550;43.864;25.986;2023-01-23T06:43:32;102518.78;;;4.66;100.00
58245;BME280;44550;43.864;25.986;2023-01-23T06:47:31;102535.34;;;4.68;100.00
58245;BME280;44550;43.864;25.986;2023-01-23T06:51:31;102543.03;;;4.67;100.00
58245;BME280;44550;43.864;25.986;2023-01-23T06:55:31;102543.06;;;4.39;100.00
58245;BME280;44550;43.864;25.986;2023-01-23T06:59:32;102534.66;;;4.43;100.00
58245;BME280;44550;43.864;25.986;2023-01-23T07:03:32;102540.31;;;4.51;100.00
58245;BME280;44550;43.864;25.986;2023-01-23T07:07:31;102555.88;;;4.51;100.00
58245;BME280;44550;43.864;25.986;2023-01-23T07:11:31;102555.56;;;4.46;100.00
58245;BME280;44550;43.864;25.986;2023-01-23T07:15:34;102559.66;;;4.42;100.00
58245;BME280;44550;43.864;25.986;2023-01-23T07:19:36;102555.69;;;4.47;100.00
58245;BME280;44550;43.864;25.986;2023-01-23T07:23:35;102564.97;;;4.44;100.00
58245;BME280;44550;43.864;25.986;2023-01-23T07:27:34;102554.94;;;4.35;100.00
58245;BME280;44550;43.864;25.986;2023-01-23T07:31:35;102570.09;;;4.29;100.00
58245;BME280;44550;43.864;25.986;2023-01-23T07:35:37;102564.09;;;4.30;100.00
58245;BME280;44550;43.864;25.986;2023-01-23T07:39:36;102563.19;;;4.30;100.00
58245;BME280;44550;43.864;25.986;2023-01-23T07:43:35;102565.72;;;4.28;100.00
58245;BME280;44550;43.864;25.986;2023-01-23T07:47:37;102556.13;;;4.27;100.00
58245;BME280;44550;43.864;25.986;2023-01-23T07:51:37;102582.03;;;4.27;100.00
58245;BME280;44550;43.864;25.986;2023-01-23T07:55:36;102588.44;;;4.19;100.00
58245;BME280;44550;43.864;25.986;2023-01-23T07:59:36;102570.13;;;4.16;100.00
58245;BME280;44550;43.864;25.986;2023-01-23T08:03:37;102574.44;;;4.30;100.00
58245;BME280;44550;43.864;25.986;2023-01-23T08:07:37;102567.28;;;4.26;100.00
58245;BME280;44550;43.864;25.986;2023-01-23T08:11:36;102568.56;;;4.33;100.00
58245;BME280;44550;43.864;25.986;2023-01-23T08:15:35;102580.06;;;4.23;100.00
58245;BME280;44550;43.864;25.986;2023-01-23T08:19:37;102583.44;;;4.22;100.00
58245;BME280;44550;43.864;25.986;2023-01-23T08:23:36;102586.03;;;4.22;100.00
58245;BME280;44550;43.864;25.986;2023-01-23T08:27:36;102593.19;;;4.26;100.00
58245;BME280;44550;43.864;25.986;2023-01-23T08:31:35;102614.72;;;4.25;100.00
58245;BME280;44550;43.864;25.986;2023-01-23T08:35:39;102601.66;;;4.23;100.00
58245;BME280;44550;43.864;25.986;2023-01-23T08:39:45;102600.34;;;4.30;100.00
58245;BME280;44550;43.864;25.986;2023-01-23T08:43:45;102613.72;;;4.23;100.00
58245;BME280;44550;43.864;25.986;2023-01-23T08:47:44;102583.13;;;4.31;100.00
58245;BME280;44550;43.864;25.986;2023-01-23T08:51:45;102595.59;;;4.23;100.00
58245;BME280;44550;43.864;25.986;2023-01-23T08:55:44;102595.91;;;4.28;100.00
58245;BME280;44550;43.864;25.986;2023-01-23T08:59:52;102596.22;;;4.19;100.00
58245;BME280;44550;43.864;25.986;2023-01-23T09:03:53;102598.47;;;4.28;100.00
58245;BME280;44550;43.864;25.986;2023-01-23T09:07:55;102606.72;;;4.35;100.00
58245;BME280;44550;43.864;25.986;2023-01-23T09:11:57;102606.47;;;4.45;100.00
58245;BME280;44550;43.864;25.986;2023-01-23T09:15:56;102608.75;;;4.54;100.00
58245;BME280;44550;43.864;25.986;2023-01-23T09:19:56;102611.44;;;4.56;100.00
58245;BME280;44550;43.864;25.986;2023-01-23T09:23:58;102607.19;;;4.43;100.00
58245;BME280;44550;43.864;25.986;2023-01-23T09:27:58;102613.13;;;4.55;100.00
58245;BME280;44550;43.864;25.986;2023-01-23T09:31:57;102603.91;;;4.45;100.00
58245;BME280;44550;43.864;25.986;2023-01-23T09:35:56;102603.28;;;4.50;100.00
58245;BME280;44550;43.864;25.986;2023-01-23T09:39:57;102601.50;;;4.48;100.00
58245;BME280;44550;43.864;25.986;2023-01-23T09:43:57;102596.97;;;4.59;100.00
58245;BME280;44550;43.864;25.986;2023-01-23T09:48:01;102588.16;;;4.70;100.00
58245;BME280;44550;43.864;25.986;2023-01-23T09:52:05;102589.94;;;4.71;100.00
58245;BME280;44550;43.864;25.986;2023-01-23T09:56:16;102593.28;;;4.84;100.00
58245;BME280;44550;43.864;25.986;2023-01-23T10:00:26;102597.28;;;4.79;100.00
58245;BME280;44550;43.864;25.986;2023-01-23T10:04:51;102600.03;;;4.67;100.00
58245;BME280;44550;43.864;25.986;2023-01-23T10:09:01;102594.41;;;4.46;100.00
58245;BME280;44550;43.864;25.986;2023-01-23T10:13:09;102597.25;;;4.64;100.00
58245;BME280;44550;43.864;25.986;2023-01-23T10:17:13;102602.34;;;4.62;100.00
58245;BME280;44550;43.864;25.986;2023-01-23T10:21:19;102589.09;;;4.30;100.00
58245;BME280;44550;43.864;25.986;2023-01-23T10:25:24;102584.03;;;4.31;100.00
58245;BME280;44550;43.864;25.986;2023-01-23T10:29:27;102591.25;;;4.37;100.00
58245;BME280;44550;43.864;25.986;2023-01-23T10:33:32;102590.56;;;4.39;100.00
58245;BME280;44550;43.864;25.986;2023-01-23T10:37:38;102594.47;;;4.33;100.00
58245;BME280;44550;43.864;25.986;2023-01-23T10:41:38;102591.91;;;4.19;100.00
58245;BME280;44550;43.864;25.986;2023-01-23T10:45:43;102600.78;;;4.23;100.00
58245;BME280;44550;43.864;25.986;2023-01-23T10:49:43;102602.63;;;4.11;100.00
58245;BME280;44550;43.864;25.986;2023-01-23T10:53:43;102595.63;;;4.10;100.00
58245;BME280;44550;43.864;25.986;2023-01-23T10:57:43;102591.09;;;4.20;100.00
58245;BME280;44550;43.864;25.986;2023-01-23T11:01:46;102588.31;;;4.31;100.00
58245;BME280;44550;43.864;25.986;2023-01-23T11:05:54;102584.38;;;4.09;100.00
58245;BME280;44550;43.864;25.986;2023-01-23T11:09:54;102591.34;;;4.10;100.00
58245;BME280;44550;43.864;25.986;2023-01-23T11:14:05;102583.34;;;4.20;100.00
58245;BME280;44550;43.864;25.986;2023-01-23T11:18:21;102586.88;;;4.08;100.00
58245;BME280;44550;43.864;25.986;2023-01-23T11:22:27;102587.00;;;3.96;100.00
58245;BME280;44550;43.864;25.986;2023-01-23T11:26:30;102592.78;;;3.92;100.00
58245;BME280;44550;43.864;25.986;2023-01-23T11:30:32;102585.13;;;3.80;100.00
58245;BME280;44550;43.864;25.986;2023-01-23T11:34:35;102576.38;;;3.91;100.00
58245;BME280;44550;43.864;25.986;2023-01-23T11:38:37;102573.38;;;3.85;100.00
58245;BME280;44550;43.864;25.986;2023-01-23T11:42:48;102566.22;;;3.81;100.00
58245;BME280;44550;43.864;25.986;2023-01-23T11:51:08;102568.41;;;3.88;100.00
58245;BME280;44550;43.864;25.986;2023-01-23T11:55:26;102563.03;;;3.85;100.00
58245;BME280;44550;43.864;25.986;2023-01-23T11:59:38;102569.28;;;3.89;100.00
58245;BME280;44550;43.864;25.986;2023-01-23T12:03:51;102568.81;;;3.81;100.00
58245;BME280;44550;43.864;25.986;2023-01-23T12:08:00;102578.56;;;3.72;100.00
58245;BME280;44550;43.864;25.986;2023-01-23T12:12:03;102584.72;;;3.74;100.00
58245;BME280;44550;43.864;25.986;2023-01-23T12:16:06;102597.66;;;3.87;100.00
58245;BME280;44550;43.864;25.986;2023-01-23T12:20:30;102596.19;;;3.78;100.00
58245;BME280;44550;43.864;25.986;2023-01-23T12:24:37;102597.16;;;3.80;100.00
58245;BME280;44550;43.864;25.986;2023-01-23T12:28:47;102602.25;;;3.65;100.00
58245;BME280;44550;43.864;25.986;2023-01-23T12:32:52;102608.81;;;3.60;100.00
58245;BME280;44550;43.864;25.986;2023-01-23T12:36:59;102610.72;;;3.62;100.00
58245;BME280;44550;43.864;25.986;2023-01-23T12:41:22;102605.81;;;3.67;100.00
58245;BME280;44550;43.864;25.986;2023-01-23T12:45:30;102614.69;;;3.57;100.00
58245;BME280;44550;43.864;25.986;2023-01-23T12:49:32;102613.31;;;3.62;100.00
58245;BME280;44550;43.864;25.986;2023-01-23T12:53:34;102615.47;;;3.56;100.00
58245;BME280;44550;43.864;25.986;2023-01-23T12:57:37;102619.75;;;3.42;100.00
58245;BME280;44550;43.864;25.986;2023-01-23T13:01:58;102619.81;;;3.30;100.00
58245;BME280;44550;43.864;25.986;2023-01-23T13:06:02;102617.66;;;3.50;100.00
58245;BME280;44550;43.864;25.986;2023-01-23T13:10:12;102627.72;;;3.45;100.00
58245;BME280;44550;43.864;25.986;2023-01-23T13:14:18;102623.84;;;3.39;100.00
58245;BME280;44550;43.864;25.986;2023-01-23T13:18:20;102627.31;;;3.39;100.00
58245;BME280;44550;43.864;25.986;2023-01-23T13:22:22;102624.72;;;3.39;100.00
58245;BME280;44550;43.864;25.986;2023-01-23T13:26:26;102630.88;;;3.28;100.00
58245;BME280;44550;43.864;25.986;2023-01-23T13:30:40;102630.69;;;3.38;100.00
58245;BME280;44550;43.864;25.986;2023-01-23T13:34:39;102631.66;;;3.27;100.00
58245;BME280;44550;43.864;25.986;2023-01-23T13:38:38;102635.63;;;3.22;100.00
58245;BME280;44550;43.864;25.986;2023-01-23T13:42:38;102641.28;;;3.16;100.00
58245;BME280;44550;43.864;25.986;2023-01-23T13:46:46;102642.09;;;3.15;100.00
58245;BME280;44550;43.864;25.986;2023-01-23T13:51:04;102638.59;;;3.15;100.00
58245;BME280;44550;43.864;25.986;2023-01-23T13:55:22;102636.50;;;3.09;100.00
58245;BME280;44550;43.864;25.986;2023-01-23T13:59:53;102653.50;;;3.05;100.00
58245;BME280;44550;43.864;25.986;2023-01-23T14:04:13;102655.88;;;3.02;100.00
58245;BME280;44550;43.864;25.986;2023-01-23T14:08:46;102648.06;;;2.89;100.00
58245;BME280;44550;43.864;25.986;2023-01-23T14:13:01;102667.28;;;2.81;100.00
58245;BME280;44550;43.864;25.986;2023-01-23T14:17:15;102655.00;;;2.90;100.00
58245;BME280;44550;43.864;25.986;2023-01-23T14:21:30;102668.91;;;2.79;100.00
58245;BME280;44550;43.864;25.986;2023-01-23T14:25:37;102659.69;;;2.71;100.00
58245;BME280;44550;43.864;25.986;2023-01-23T14:29:37;102661.41;;;2.95;100.00
58245;BME280;44550;43.864;25.986;2023-01-23T14:33:40;102662.84;;;2.78;100.00
58245;BME280;44550;43.864;25.986;2023-01-23T14:37:43;102660.81;;;2.74;100.00
58245;BME280;44550;43.864;25.986;2023-01-23T14:41:42;102673.31;;;2.68;100.00
58245;BME280;44550;43.864;25.986;2023-01-23T14:45:44;102662.44;;;2.61;100.00
58245;BME280;44550;43.864;25.986;2023-01-23T14:49:44;102686.72;;;2.51;100.00
58245;BME280;44550;43.864;25.986;2023-01-23T14:53:55;102680.00;;;2.41;100.00
58245;BME280;44550;43.864;25.986;2023-01-23T14:57:55;102677.63;;;2.44;100.00
58245;BME280;44550;43.864;25.986;2023-01-23T15:01:56;102672.81;;;2.49;100.00
58245;BME280;44550;43.864;25.986;2023-01-23T15:05:59;102669.34;;;2.37;100.00
58245;BME280;44550;43.864;25.986;2023-01-23T15:10:03;102673.16;;;2.42;100.00
58245;BME280;44550;43.864;25.986;2023-01-23T15:14:02;102674.22;;;2.32;100.00
58245;BME280;44550;43.864;25.986;2023-01-23T15:18:04;102672.31;;;2.18;100.00
58245;BME280;44550;43.864;25.986;2023-01-23T15:22:17;102674.88;;;2.18;100.00
58245;BME280;44550;43.864;25.986;2023-01-23T15:26:24;102681.38;;;2.24;100.00
58245;BME280;44550;43.864;25.986;2023-01-23T15:30:35;102681.06;;;2.20;100.00
58245;BME280;44550;43.864;25.986;2023-01-23T15:34:35;102695.31;;;2.15;100.00
58245;BME280;44550;43.864;25.986;2023-01-23T15:38:37;102701.34;;;2.15;100.00
58245;BME280;44550;43.864;25.986;2023-01-23T15:42:38;102698.56;;;2.24;100.00
58245;BME280;44550;43.864;25.986;2023-01-23T15:46:37;102689.25;;;2.26;100.00
58245;BME280;44550;43.864;25.986;2023-01-23T15:50:36;102704.75;;;2.26;100.00
58245;BME280;44550;43.864;25.986;2023-01-23T15:54:36;102710.78;;;2.26;100.00
58245;BME280;44550;43.864;25.986;2023-01-23T15:58:38;102716.28;;;2.07;100.00
58245;BME280;44550;43.864;25.986;2023-01-23T16:02:37;102719.78;;;2.08;100.00
58245;BME280;44550;43.864;25.986;2023-01-23T16:06:52;102723.81;;;2.04;100.00
58245;BME280;44550;43.864;25.986;2023-01-23T16:10:51;102732.69;;;1.96;100.00
58245;BME280;44550;43.864;25.986;2023-01-23T16:14:52;102734.03;;;2.03;100.00
58245;BME280;44550;43.864;25.986;2023-01-23T16:18:51;102740.53;;;1.98;100.00
58245;BME280;44550;43.864;25.986;2023-01-23T16:22:51;102734.25;;;2.06;100.00
58245;BME280;44550;43.864;25.986;2023-01-23T16:26:51;102738.06;;;1.99;100.00
58245;BME280;44550;43.864;25.986;2023-01-23T16:30:54;102761.81;;;1.95;100.00
58245;BME280;44550;43.864;25.986;2023-01-23T16:34:53;102749.28;;;2.00;100.00
58245;BME280;44550;43.864;25.986;2023-01-23T16:38:52;102744.91;;;1.87;100.00
58245;BME280;44550;43.864;25.986;2023-01-23T16:42:53;102744.56;;;1.94;100.00
58245;BME280;44550;43.864;25.986;2023-01-23T16:46:55;102752.06;;;1.91;100.00
58245;BME280;44550;43.864;25.986;2023-01-23T16:50:55;102750.50;;;1.93;100.00
58245;BME280;44550;43.864;25.986;2023-01-23T16:54:56;102759.16;;;1.94;100.00
58245;BME280;44550;43.864;25.986;2023-01-23T16:58:55;102749.25;;;1.88;100.00
58245;BME280;44550;43.864;25.986;2023-01-23T17:02:58;102756.66;;;1.95;100.00
58245;BME280;44550;43.864;25.986;2023-01-23T17:06:59;102766.44;;;1.99;100.00
58245;BME280;44550;43.864;25.986;2023-01-23T17:10:59;102768.13;;;1.99;100.00
58245;BME280;44550;43.864;25.986;2023-01-23T17:14:59;102775.09;;;2.00;100.00
58245;BME280;44550;43.864;25.986;2023-01-23T17:19:05;102779.34;;;1.99;100.00
58245;BME280;44550;43.864;25.986;2023-01-23T17:23:07;102777.09;;;2.04;100.00
58245;BME280;44550;43.864;25.986;2023-01-23T17:27:08;102772.84;;;2.04;100.00
58245;BME280;44550;43.864;25.986;2023-01-23T17:31:07;102781.25;;;2.14;100.00
58245;BME280;44550;43.864;25.986;2023-01-23T17:35:18;102773.84;;;2.30;100.00
58245;BME280;44550;43.864;25.986;2023-01-23T17:39:19;102773.41;;;2.12;100.00
58245;BME280;44550;43.864;25.986;2023-01-23T17:43:19;102761.63;;;2.04;100.00
58245;BME280;44550;43.864;25.986;2023-01-23T17:47:18;102762.66;;;2.06;100.00
58245;BME280;44550;43.864;25.986;2023-01-23T17:51:19;102763.28;;;2.15;100.00
58245;BME280;44550;43.864;25.986;2023-01-23T17:55:20;102763.63;;;2.08;100.00
58245;BME280;44550;43.864;25.986;2023-01-23T17:59:20;102762.66;;;2.06;100.00
58245;BME280;44550;43.864;25.986;2023-01-23T18:03:20;102759.69;;;2.01;100.00
58245;BME280;44550;43.864;25.986;2023-01-23T18:07:22;102770.81;;;2.00;100.00
58245;BME280;44550;43.864;25.986;2023-01-23T18:11:22;102784.84;;;2.04;100.00
58245;BME280;44550;43.864;25.986;2023-01-23T18:15:26;102783.94;;;2.03;100.00
58245;BME280;44550;43.864;25.986;2023-01-23T18:19:26;102784.03;;;2.05;100.00
58245;BME280;44550;43.864;25.986;2023-01-23T18:23:29;102793.72;;;2.07;100.00
58245;BME280;44550;43.864;25.986;2023-01-23T18:27:33;102793.47;;;2.04;100.00
58245;BME280;44550;43.864;25.986;2023-01-23T18:31:36;102809.19;;;2.07;100.00
58245;BME280;44550;43.864;25.986;2023-01-23T18:35:48;102813.69;;;2.10;100.00
58245;BME280;44550;43.864;25.986;2023-01-23T18:39:59;102804.59;;;2.15;100.00
58245;BME280;44550;43.864;25.986;2023-01-23T18:44:03;102801.25;;;2.16;100.00
58245;BME280;44550;43.864;25.986;2023-01-23T18:48:07;102794.25;;;2.15;100.00
58245;BME280;44550;43.864;25.986;2023-01-23T18:52:23;102799.41;;;2.15;100.00
58245;BME280;44550;43.864;25.986;2023-01-23T18:56:29;102806.50;;;2.18;100.00
58245;BME280;44550;43.864;25.986;2023-01-23T19:00:31;102820.31;;;2.06;100.00
58245;BME280;44550;43.864;25.986;2023-01-23T19:04:34;102827.13;;;1.94;100.00
58245;BME280;44550;43.864;25.986;2023-01-23T19:08:36;102837.81;;;1.99;100.00
58245;BME280;44550;43.864;25.986;2023-01-23T19:12:40;102832.84;;;2.02;100.00
58245;BME280;44550;43.864;25.986;2023-01-23T19:16:47;102845.88;;;2.15;100.00
58245;BME280;44550;43.864;25.986;2023-01-23T19:20:53;102841.94;;;1.97;100.00
58245;BME280;44550;43.864;25.986;2023-01-23T19:24:56;102843.41;;;2.05;100.00
58245;BME280;44550;43.864;25.986;2023-01-23T19:28:58;102843.63;;;1.96;100.00
58245;BME280;44550;43.864;25.986;2023-01-23T19:33:17;102832.28;;;1.94;100.00
58245;BME280;44550;43.864;25.986;2023-01-23T19:37:17;102842.59;;;1.94;100.00
58245;BME280;44550;43.864;25.986;2023-01-23T19:41:17;102843.03;;;1.88;100.00
58245;BME280;44550;43.864;25.986;2023-01-23T19:45:23;102841.13;;;1.86;100.00
58245;BME280;44550;43.864;25.986;2023-01-23T19:49:24;102853.78;;;1.83;100.00
58245;BME280;44550;43.864;25.986;2023-01-23T19:53:23;102861.47;;;1.71;100.00
58245;BME280;44550;43.864;25.986;2023-01-23T19:57:23;102854.78;;;1.73;100.00
58245;BME280;44550;43.864;25.986;2023-01-23T20:01:25;102867.78;;;1.75;100.00
58245;BME280;44550;43.864;25.986;2023-01-23T20:05:28;102857.91;;;1.69;100.00
58245;BME280;44550;43.864;25.986;2023-01-23T20:09:27;102860.50;;;1.69;100.00
58245;BME280;44550;43.864;25.986;2023-01-23T20:13:26;102860.50;;;1.69;100.00
58245;BME280;44550;43.864;25.986;2023-01-23T20:17:28;102864.03;;;1.59;100.00
58245;BME280;44550;43.864;25.986;2023-01-23T20:21:27;102878.16;;;1.64;100.00
58245;BME280;44550;43.864;25.986;2023-01-23T20:25:26;102876.72;;;1.68;100.00
58245;BME280;44550;43.864;25.986;2023-01-23T20:29:26;102872.75;;;1.61;100.00
58245;BME280;44550;43.864;25.986;2023-01-23T20:33:27;102873.78;;;1.63;100.00
58245;BME280;44550;43.864;25.986;2023-01-23T20:37:27;102864.56;;;1.55;100.00
58245;BME280;44550;43.864;25.986;2023-01-23T20:41:27;102877.44;;;1.55;100.00
58245;BME280;44550;43.864;25.986;2023-01-23T20:45:26;102882.31;;;1.40;100.00
58245;BME280;44550;43.864;25.986;2023-01-23T20:49:28;102886.44;;;1.38;100.00
58245;BME280;44550;43.864;25.986;2023-01-23T20:53:27;102893.66;;;1.43;100.00
58245;BME280;44550;43.864;25.986;2023-01-23T20:57:30;102884.59;;;1.48;100.00